createdAt,value
2023-10-29T00:01:59.636Z,98256.19
2023-10-29T00:04:27.832Z,98251.06
2023-10-29T00:06:56.376Z,98246.53
2023-10-29T00:09:28.864Z,98251.16
2023-10-29T00:11:57.725Z,98257.56
2023-10-29T00:14:26.130Z,98250.75
2023-10-29T00:16:57.789Z,98256.31
2023-10-29T00:19:26.457Z,98259.59
2023-10-29T00:21:55.493Z,98255.50
2023-10-29T00:24:25.502Z,98255.81
2023-10-29T00:26:53.851Z,98251.44
2023-10-29T00:29:22.427Z,98255.34
2023-10-29T00:31:50.600Z,98253.25
2023-10-29T00:34:18.821Z,98262.13
2023-10-29T00:36:49.879Z,98271.69
2023-10-29T00:39:18.949Z,98278.69
2023-10-29T00:41:48.688Z,98271.50
2023-10-29T00:44:18.131Z,98269.09
2023-10-29T00:46:46.439Z,98273.78
2023-10-29T00:49:14.966Z,98272.19
2023-10-29T00:51:43.162Z,98280.03
2023-10-29T00:54:11.945Z,98288.97
2023-10-29T00:56:40.366Z,98292.16
2023-10-29T00:59:13.061Z,98319.28
2023-10-29T01:01:42.222Z,98329.84
2023-10-29T01:04:10.768Z,98356.47
2023-10-29T01:06:42.067Z,98368.41
2023-10-29T01:09:11.549Z,98364.81
2023-10-29T01:11:40.175Z,98384.25
2023-10-29T01:14:09.967Z,98378.75
2023-10-29T01:16:38.235Z,98367.97
2023-10-29T01:19:06.733Z,98363.03
2023-10-29T01:21:35.284Z,98377.06
2023-10-29T01:24:04.353Z,98362.25
2023-10-29T01:26:33.489Z,98360.13
2023-10-29T01:29:05.690Z,98365.34
2023-10-29T01:31:35.488Z,98363.88
2023-10-29T01:34:03.830Z,98370.25
2023-10-29T01:36:32.092Z,98363.19
2023-10-29T01:39:01.516Z,98365.00
2023-10-29T01:41:29.802Z,98344.59
2023-10-29T01:43:58.381Z,98318.84
2023-10-29T01:46:26.611Z,98333.34
2023-10-29T01:48:57.129Z,98330.09
2023-10-29T01:51:28.035Z,98316.41
2023-10-29T01:53:56.295Z,98316.72
2023-10-29T01:56:24.918Z,98305.78
2023-10-29T01:58:53.107Z,98304.69
2023-10-29T02:01:21.324Z,98300.09
2023-10-29T02:06:47.334Z,98304.34
2023-10-29T02:09:15.838Z,98303.38
2023-10-29T02:11:44.210Z,98294.25
2023-10-29T02:14:12.376Z,98278.25
2023-10-29T02:16:42.040Z,98285.59
2023-10-29T02:19:10.175Z,98275.16
2023-10-29T02:21:38.818Z,98273.38
2023-10-29T02:24:09.444Z,98273.22
2023-10-29T02:26:37.777Z,98247.44
2023-10-29T02:29:06.153Z,98255.78
2023-10-29T02:31:34.166Z,98266.50
2023-10-29T02:34:02.590Z,98286.25
2023-10-29T02:36:31.098Z,98318.19
2023-10-29T02:38:59.376Z,98326.34
2023-10-29T02:41:28.966Z,98344.94
2023-10-29T02:43:57.656Z,98335.66
2023-10-29T02:46:26.120Z,98339.09
2023-10-29T02:48:54.347Z,98332.56
2023-10-29T02:51:22.977Z,98342.66
2023-10-29T02:53:51.685Z,98347.03
2023-10-29T02:56:20.080Z,98361.06
2023-10-29T02:58:49.828Z,98365.66
2023-10-29T03:01:18.546Z,98355.91
2023-10-29T03:03:47.132Z,98373.84
2023-10-29T03:06:15.887Z,98348.09
2023-10-29T03:08:45.017Z,98347.72
2023-10-29T03:11:14.061Z,98357.03
2023-10-29T03:13:42.011Z,98358.66
2023-10-29T03:16:11.742Z,98359.47
2023-10-29T03:18:40.128Z,98352.78
2023-10-29T03:21:08.062Z,98351.81
2023-10-29T03:23:35.935Z,98343.66
2023-10-29T03:26:05.001Z,98336.63
2023-10-29T03:28:32.989Z,98344.44
2023-10-29T03:31:01.403Z,98345.94
2023-10-29T03:33:30.822Z,98351.63
2023-10-29T03:36:00.420Z,98354.09
2023-10-29T03:38:28.394Z,98368.78
2023-10-29T03:40:57.910Z,98379.06
2023-10-29T03:43:25.801Z,98369.59
2023-10-29T03:45:54.208Z,98352.13
2023-10-29T03:48:22.404Z,98360.44
2023-10-29T03:50:52.688Z,98372.38
2023-10-29T03:53:21.076Z,98388.53
2023-10-29T03:55:52.203Z,98379.38
2023-10-29T03:58:20.521Z,98378.41
2023-10-29T04:00:54.131Z,98367.91
2023-10-29T04:03:22.799Z,98354.88
2023-10-29T04:05:52.545Z,98351.78
2023-10-29T04:08:20.899Z,98358.13
2023-10-29T04:10:49.121Z,98351.41
2023-10-29T04:13:17.307Z,98359.72
2023-10-29T04:15:45.659Z,98355.69
2023-10-29T04:18:13.897Z,98360.09
2023-10-29T04:20:42.123Z,98367.44
2023-10-29T04:23:12.090Z,98362.06
2023-10-29T04:25:40.189Z,98368.41
2023-10-29T04:28:08.810Z,98367.47
2023-10-29T04:30:36.951Z,98374.00
2023-10-29T04:33:05.586Z,98364.38
2023-10-29T04:35:33.812Z,98363.75
2023-10-29T04:38:02.181Z,98369.25
2023-10-29T04:40:32.027Z,98358.66
2023-10-29T04:43:00.148Z,98346.91
2023-10-29T04:45:28.593Z,98362.53
2023-10-29T04:47:56.569Z,98353.03
2023-10-29T04:50:25.186Z,98339.16
2023-10-29T04:52:53.465Z,98337.44
2023-10-29T04:55:22.078Z,98321.31
2023-10-29T04:57:51.721Z,98323.69
2023-10-29T05:00:20.335Z,98315.94
2023-10-29T05:02:48.715Z,98314.16
2023-10-29T05:05:17.450Z,98309.09
2023-10-29T05:07:46.554Z,98300.50
2023-10-29T05:10:15.757Z,98298.34
2023-10-29T05:12:44.033Z,98289.88
2023-10-29T05:15:14.449Z,98287.81
2023-10-29T05:17:43.817Z,98279.41
2023-10-29T05:20:12.998Z,98273.03
2023-10-29T05:22:41.544Z,98271.06
2023-10-29T05:25:10.903Z,98266.50
2023-10-29T05:27:39.208Z,98262.25
2023-10-29T05:30:09.111Z,98253.91
2023-10-29T05:32:39.928Z,98254.13
2023-10-29T05:35:10.162Z,98248.78
2023-10-29T05:37:38.579Z,98256.22
2023-10-29T05:40:09.362Z,98257.09
2023-10-29T05:42:38.078Z,98247.00
2023-10-29T05:45:08.154Z,98245.09
2023-10-29T05:47:36.796Z,98250.34
2023-10-29T05:50:07.566Z,98251.19
2023-10-29T05:52:36.568Z,98246.50
2023-10-29T05:55:06.100Z,98251.09
2023-10-29T05:57:34.600Z,98259.00
2023-10-29T06:00:03.189Z,98268.34
2023-10-29T06:02:40.637Z,98282.59
2023-10-29T06:05:10.875Z,98292.28
2023-10-29T06:07:44.327Z,98297.16
2023-10-29T06:10:15.131Z,98296.56
2023-10-29T06:12:43.771Z,98304.69
2023-10-29T06:15:13.218Z,98314.16
2023-10-29T06:17:43.182Z,98309.63
2023-10-29T06:20:18.403Z,98306.66
2023-10-29T06:22:47.349Z,98313.84
2023-10-29T06:25:17.014Z,98321.66
2023-10-29T06:27:45.776Z,98329.38
2023-10-29T06:30:14.811Z,98317.50
2023-10-29T06:32:43.293Z,98289.06
2023-10-29T06:35:13.376Z,98271.97
2023-10-29T06:37:41.643Z,98246.63
2023-10-29T06:40:11.284Z,98256.38
2023-10-29T06:42:40.063Z,98237.28
2023-10-29T06:45:09.107Z,98236.38
2023-10-29T06:47:37.439Z,98220.28
2023-10-29T06:50:06.704Z,98200.84
2023-10-29T06:52:36.166Z,98151.09
2023-10-29T06:55:04.483Z,98146.41
2023-10-29T06:57:32.463Z,98143.66
2023-10-29T07:00:01.928Z,98111.94
2023-10-29T07:02:30.613Z,98127.91
2023-10-29T07:05:00.835Z,98167.78
2023-10-29T07:07:31.156Z,98186.69
2023-10-29T07:10:01.146Z,98196.16
2023-10-29T07:12:32.325Z,98192.09
2023-10-29T07:15:00.881Z,98191.78
2023-10-29T07:17:29.154Z,98188.25
2023-10-29T07:19:57.827Z,98188.66
2023-10-29T07:22:26.711Z,98186.44
2023-10-29T07:24:55.296Z,98175.41
2023-10-29T07:27:24.834Z,98174.25
2023-10-29T07:29:53.800Z,98165.91
2023-10-29T07:32:22.147Z,98169.31
2023-10-29T07:34:50.228Z,98166.88
2023-10-29T07:37:19.298Z,98159.22
2023-10-29T07:39:50.402Z,98148.97
2023-10-29T07:42:18.748Z,98134.31
2023-10-29T07:44:49.021Z,98117.22
2023-10-29T07:47:17.367Z,98107.31
2023-10-29T07:49:45.271Z,98090.22
2023-10-29T07:52:13.824Z,98096.63
2023-10-29T07:54:42.140Z,98095.81
2023-10-29T07:57:10.532Z,98091.72
2023-10-29T07:59:38.971Z,98087.34
2023-10-29T08:02:11.156Z,98109.81
2023-10-29T08:04:45.496Z,98123.16
2023-10-29T08:07:14.883Z,98117.47
2023-10-29T08:09:46.219Z,98134.72
2023-10-29T08:12:14.711Z,98139.13
2023-10-29T08:14:43.486Z,98126.75
2023-10-29T08:17:15.439Z,98133.91
2023-10-29T08:19:44.349Z,98117.78
2023-10-29T08:22:14.487Z,98126.72
2023-10-29T08:24:43.714Z,98135.34
2023-10-29T08:27:16.090Z,98143.63
2023-10-29T08:29:46.908Z,98170.66
2023-10-29T08:32:22.672Z,98169.31
2023-10-29T08:34:54.548Z,98163.31
2023-10-29T08:37:24.355Z,98167.06
2023-10-29T08:40:02.169Z,98173.75
2023-10-29T08:42:35.283Z,98184.63
2023-10-29T08:45:06.625Z,98183.78
2023-10-29T08:47:38.394Z,98185.09
2023-10-29T08:50:11.419Z,98192.56
2023-10-29T08:52:40.646Z,98219.25
2023-10-29T08:55:10.309Z,98198.22
2023-10-29T08:58:03.110Z,98240.78
2023-10-29T09:00:45.325Z,98248.06
2023-10-29T09:03:16.290Z,98261.81
2023-10-29T09:05:47.960Z,98276.44
2023-10-29T09:08:18.858Z,98283.31
2023-10-29T09:10:48.142Z,98298.81
2023-10-29T09:13:20.347Z,98290.47
2023-10-29T09:15:51.386Z,98315.53
2023-10-29T09:18:21.425Z,98322.19
2023-10-29T09:20:52.111Z,98324.31
2023-10-29T09:23:20.333Z,98345.19
2023-10-29T09:25:51.248Z,98372.00
2023-10-29T09:28:24.808Z,98383.81
2023-10-29T09:30:53.061Z,98380.50
2023-10-29T09:33:26.000Z,98379.50
2023-10-29T09:35:57.427Z,98370.19
2023-10-29T09:38:27.917Z,98376.03
2023-10-29T09:41:03.517Z,98395.50
2023-10-29T09:43:41.176Z,98410.88
2023-10-29T09:46:12.346Z,98386.63
2023-10-29T09:48:45.887Z,98367.34
2023-10-29T09:51:14.390Z,98373.59
2023-10-29T09:53:43.624Z,98365.09
2023-10-29T09:56:16.887Z,98365.91
2023-10-29T09:58:45.044Z,98371.66
2023-10-29T10:01:14.057Z,98369.50
2023-10-29T10:03:44.626Z,98351.91
2023-10-29T10:06:16.418Z,98347.69
2023-10-29T10:08:46.171Z,98325.03
2023-10-29T10:11:24.677Z,98308.25
2023-10-29T10:13:53.645Z,98306.47
2023-10-29T10:16:23.226Z,98299.91
2023-10-29T10:18:55.381Z,98298.31
2023-10-29T10:21:26.260Z,98310.22
2023-10-29T10:23:56.658Z,98309.09
2023-10-29T10:26:34.684Z,98315.13
2023-10-29T10:29:04.424Z,98325.41
2023-10-29T10:31:34.968Z,98337.31
2023-10-29T10:34:15.243Z,98341.53
2023-10-29T10:36:44.612Z,98346.75
2023-10-29T10:39:13.934Z,98353.63
2023-10-29T10:41:44.577Z,98348.69
2023-10-29T10:44:14.966Z,98343.16
2023-10-29T10:46:50.913Z,98316.44
2023-10-29T10:49:23.102Z,98315.94
2023-10-29T10:51:55.823Z,98297.00
2023-10-29T10:54:25.957Z,98289.34
2023-10-29T10:56:55.628Z,98276.94
2023-10-29T10:59:41.196Z,98281.50
2023-10-29T11:02:15.521Z,98277.94
2023-10-29T11:04:52.254Z,98264.72
2023-10-29T11:07:21.295Z,98249.84
2023-10-29T11:09:50.322Z,98246.44
2023-10-29T11:12:21.402Z,98257.22
2023-10-29T11:15:14.059Z,98254.75
2023-10-29T11:17:59.850Z,98260.97
2023-10-29T11:20:58.483Z,98257.72
2023-10-29T11:23:31.234Z,98253.63
2023-10-29T11:26:25.999Z,98260.00
2023-10-29T11:28:56.258Z,98253.16
2023-10-29T11:31:27.375Z,98238.97
2023-10-29T11:34:34.727Z,98258.38
2023-10-29T11:37:38.317Z,98252.16
2023-10-29T11:40:35.313Z,98255.94
2023-10-29T11:43:22.635Z,98251.84
2023-10-29T11:45:55.746Z,98261.28
2023-10-29T11:48:26.122Z,98262.44
2023-10-29T11:51:20.715Z,98258.34
2023-10-29T11:53:49.464Z,98269.94
2023-10-29T11:56:22.607Z,98286.41
2023-10-29T11:59:08.603Z,98272.03
2023-10-29T12:01:41.591Z,98279.22
2023-10-29T12:04:11.532Z,98275.31
2023-10-29T12:06:44.506Z,98281.69
2023-10-29T12:09:21.571Z,98266.19
2023-10-29T12:11:54.463Z,98249.72
2023-10-29T12:14:41.184Z,98241.09
2023-10-29T12:17:14.002Z,98261.16
2023-10-29T12:19:44.983Z,98244.66
2023-10-29T12:22:19.211Z,98253.16
2023-10-29T12:24:48.514Z,98227.41
2023-10-29T12:27:20.777Z,98233.41
2023-10-29T12:29:49.199Z,98228.00
2023-10-29T12:32:18.960Z,98210.94
2023-10-29T12:34:49.412Z,98240.75
2023-10-29T12:37:25.600Z,98229.00
2023-10-29T12:39:56.943Z,98245.31
2023-10-29T12:42:54.424Z,98241.38
2023-10-29T12:45:26.693Z,98227.00
2023-10-29T12:48:13.368Z,98272.88
2023-10-29T12:50:48.758Z,98253.44
2023-10-29T12:53:23.050Z,98288.38
2023-10-29T12:55:51.177Z,98274.50
2023-10-29T12:58:20.617Z,98247.63
2023-10-29T13:00:48.628Z,98259.03
2023-10-29T13:03:16.666Z,98235.88
2023-10-29T13:05:44.647Z,98225.13
2023-10-29T13:08:15.372Z,98232.59
2023-10-29T13:10:47.147Z,98240.78
2023-10-29T13:13:16.679Z,98217.81
2023-10-29T13:15:46.299Z,98206.22
2023-10-29T13:18:16.028Z,98215.63
2023-10-29T13:20:44.183Z,98221.97
2023-10-29T13:23:12.368Z,98215.53
2023-10-29T13:25:40.298Z,98231.47
2023-10-29T13:28:08.174Z,98238.44
2023-10-29T13:30:37.679Z,98246.91
2023-10-29T13:33:06.971Z,98245.78
2023-10-29T13:35:39.562Z,98241.38
2023-10-29T13:38:09.620Z,98238.78
2023-10-29T13:40:39.121Z,98237.94
2023-10-29T13:43:07.599Z,98230.06
2023-10-29T13:45:36.234Z,98233.69
2023-10-29T13:48:05.891Z,98237.28
2023-10-29T13:50:38.782Z,98239.25
2023-10-29T13:53:07.071Z,98228.59
2023-10-29T13:55:35.160Z,98232.78
2023-10-29T13:58:07.245Z,98206.34
2023-10-29T14:00:35.593Z,98146.28
2023-10-29T14:03:03.564Z,98149.06
2023-10-29T14:05:31.551Z,98113.06
2023-10-29T14:08:01.349Z,98080.81
2023-10-29T14:10:29.233Z,98179.16
2023-10-29T14:12:57.048Z,98162.63
2023-10-29T14:15:25.299Z,98118.53
2023-10-29T14:17:54.572Z,98123.44
2023-10-29T14:20:23.007Z,98122.75
2023-10-29T14:22:51.480Z,98135.78
2023-10-29T14:25:23.246Z,98117.09
2023-10-29T14:27:52.163Z,98124.06
2023-10-29T14:30:20.481Z,98124.28
2023-10-29T14:32:48.879Z,98121.22
2023-10-29T14:35:16.822Z,98099.06
2023-10-29T14:37:44.701Z,98116.00
2023-10-29T14:40:13.567Z,98116.78
2023-10-29T14:42:45.503Z,98113.03
2023-10-29T14:45:13.657Z,98126.88
2023-10-29T14:47:42.235Z,98154.69
2023-10-29T14:50:11.113Z,98149.97
2023-10-29T14:52:39.177Z,98159.09
2023-10-29T14:55:08.438Z,98176.38
2023-10-29T14:57:36.014Z,98163.53
2023-10-29T15:00:07.128Z,98147.91
2023-10-29T15:02:35.409Z,98111.06
2023-10-29T15:05:05.586Z,98134.97
2023-10-29T15:07:33.686Z,98150.44
2023-10-29T15:10:02.688Z,98154.06
2023-10-29T15:12:30.798Z,98169.88
2023-10-29T15:14:59.361Z,98178.34
2023-10-29T15:17:28.798Z,98201.34
2023-10-29T15:19:58.959Z,98188.94
2023-10-29T15:22:27.303Z,98201.31
2023-10-29T15:24:55.415Z,98223.81
2023-10-29T15:27:25.446Z,98233.44
2023-10-29T15:29:53.614Z,98241.56
2023-10-29T15:32:21.555Z,98238.81
2023-10-29T15:34:50.917Z,98242.09
2023-10-29T15:37:19.823Z,98242.56
2023-10-29T15:39:46.359Z,98244.69
2023-10-29T15:42:14.372Z,98273.84
2023-10-29T15:44:43.101Z,98269.44
2023-10-29T15:47:11.332Z,98279.72
2023-10-29T15:49:41.007Z,98288.34
2023-10-29T15:52:10.740Z,98292.13
2023-10-29T15:54:38.676Z,98286.41
2023-10-29T15:57:06.849Z,98269.78
2023-10-29T15:59:34.990Z,98271.91
2023-10-29T16:02:03.083Z,98258.38
2023-10-29T16:04:31.145Z,98261.44
2023-10-29T16:06:59.436Z,98259.34
2023-10-29T16:09:29.454Z,98265.03
2023-10-29T16:11:57.470Z,98259.50
2023-10-29T16:14:25.488Z,98260.13
2023-10-29T16:16:53.371Z,98273.19
2023-10-29T16:19:21.362Z,98281.19
2023-10-29T16:21:49.265Z,98298.13
2023-10-29T16:24:17.761Z,98312.31
2023-10-29T16:26:47.823Z,98302.03
2023-10-29T16:29:18.487Z,98299.38
2023-10-29T16:31:46.895Z,98292.88
2023-10-29T16:34:14.743Z,98299.00
2023-10-29T16:36:42.763Z,98298.69
2023-10-29T16:39:11.246Z,98300.47
2023-10-29T16:41:39.164Z,98290.69
2023-10-29T16:44:08.484Z,98306.50
2023-10-29T16:46:36.715Z,98314.81
2023-10-29T16:49:05.454Z,98314.97
2023-10-29T16:51:33.140Z,98300.78
2023-10-29T16:54:01.386Z,98282.22
2023-10-29T16:56:30.022Z,98282.56
2023-10-29T16:59:01.179Z,98279.00
2023-10-29T17:01:30.613Z,98282.09
2023-10-29T17:03:58.764Z,98284.75
2023-10-29T17:06:26.881Z,98290.31
2023-10-29T17:08:55.389Z,98287.13
2023-10-29T17:11:23.833Z,98300.16
2023-10-29T17:13:52.382Z,98293.16
2023-10-29T17:16:20.411Z,98282.03
2023-10-29T17:18:50.676Z,98285.28
2023-10-29T17:21:21.222Z,98288.38
2023-10-29T17:23:51.608Z,98286.75
2023-10-29T17:26:21.141Z,98280.56
2023-10-29T17:28:50.245Z,98288.72
2023-10-29T17:37:18.920Z,98309.69
2023-10-29T17:39:49.167Z,98303.06
2023-10-29T17:42:17.199Z,98322.97
2023-10-29T17:44:45.398Z,98307.47
2023-10-29T17:47:13.264Z,98317.19
2023-10-29T17:49:40.313Z,98305.63
2023-10-29T17:52:11.143Z,98318.44
2023-10-29T17:54:39.643Z,98326.63
2023-10-29T17:57:08.313Z,98312.47
2023-10-29T17:59:38.726Z,98329.56
2023-10-29T18:02:08.314Z,98329.91
2023-10-29T18:04:36.314Z,98323.59
2023-10-29T18:07:04.823Z,98329.25
2023-10-29T18:09:34.309Z,98357.06
2023-10-29T18:12:03.174Z,98353.34
2023-10-29T19:54:57.638Z,98427.88
2023-10-29T19:57:26.888Z,98440.88
2023-10-29T19:59:55.103Z,98436.41
2023-10-29T20:02:23.568Z,98434.50
2023-10-29T20:04:58.837Z,98438.59
2023-10-29T20:07:29.443Z,98459.69
2023-10-29T20:09:58.771Z,98436.28
2023-10-29T20:12:27.911Z,98442.97
2023-10-29T20:14:56.153Z,98431.81
2023-10-29T20:17:24.430Z,98429.22
2023-10-29T20:19:52.378Z,98444.66
2023-10-29T20:22:20.801Z,98463.53
2023-10-29T20:24:48.772Z,98460.81
2023-10-29T20:27:18.378Z,98454.84
2023-10-29T20:29:46.431Z,98469.25
2023-10-29T20:32:16.017Z,98471.69
2023-10-29T20:34:44.119Z,98492.13
2023-10-29T20:37:12.948Z,98490.34
2023-10-29T20:39:41.300Z,98484.50
2023-10-29T20:42:12.338Z,98485.00
2023-10-29T20:44:42.077Z,98489.97
2023-10-29T20:47:11.099Z,98472.56
2023-10-29T20:49:39.483Z,98456.25
2023-10-29T20:52:09.409Z,98454.63
2023-10-29T20:54:37.619Z,98451.06
2023-10-29T20:57:06.234Z,98450.91
2023-10-29T20:59:34.294Z,98470.63
2023-10-29T21:02:05.924Z,98478.34
2023-10-29T21:04:34.043Z,98474.41
2023-10-29T21:07:04.976Z,98476.22
2023-10-29T21:09:33.176Z,98475.91
2023-10-29T21:12:01.491Z,98483.91
2023-10-29T21:14:29.593Z,98477.41
2023-10-29T21:16:57.928Z,98487.56
2023-10-29T21:19:38.542Z,98504.97
2023-10-29T21:22:08.159Z,98499.63
2023-10-29T21:24:36.640Z,98496.50
2023-10-29T21:27:07.935Z,98489.13
2023-10-29T21:29:36.140Z,98494.03
2023-10-29T21:32:04.397Z,98501.69
2023-10-29T21:34:34.644Z,98500.34
2023-10-29T21:37:09.625Z,98497.44
2023-10-29T21:39:38.303Z,98498.81
2023-10-29T21:42:06.869Z,98500.19
2023-10-29T21:44:34.765Z,98507.50
2023-10-29T21:59:29.164Z,98511.22
2023-10-29T22:02:01.447Z,98521.09
2023-10-29T22:04:31.691Z,98514.63
2023-10-29T23:01:48.522Z,98593.78
2023-10-29T23:04:16.888Z,98592.53
2023-10-29T23:06:47.390Z,98597.34
2023-10-29T23:09:15.416Z,98608.25
2023-10-29T23:11:43.559Z,98614.09
2023-10-29T23:14:12.493Z,98619.16
2023-10-29T23:16:43.040Z,98613.81
2023-10-29T23:19:13.130Z,98631.81
2023-10-29T23:21:41.204Z,98623.16
2023-10-29T23:24:12.289Z,98628.44
2023-10-29T23:26:40.648Z,98629.38
2023-10-29T23:29:09.344Z,98632.00
2023-10-29T23:31:37.678Z,98638.19
